sensor_id;sensor_type;location;lat;lon;timestamp;P1;durP1;ratioP1;P2;durP2;ratioP2
24229;SDS011;12362;50.004;8.006;2022-08-19T00:01:11;5.55;;;2.13;;
24229;SDS011;12362;50.004;8.006;2022-08-19T00:03:46;6.00;;;2.08;;
24229;SDS011;12362;50.004;8.006;2022-08-19T00:06:14;2.88;;;1.38;;
24229;SDS011;12362;50.004;8.006;2022-08-19T00:08:40;3.97;;;1.48;;
24229;SDS011;12362;50.004;8.006;2022-08-19T00:11:07;2.35;;;1.42;;
24229;SDS011;12362;50.004;8.006;2022-08-19T00:13:35;3.05;;;1.63;;
24229;SDS011;12362;50.004;8.006;2022-08-19T00:16:11;4.20;;;1.67;;
24229;SDS011;12362;50.004;8.006;2022-08-19T00:18:44;4.85;;;1.55;;
24229;SDS011;12362;50.004;8.006;2022-08-19T00:21:21;2.95;;;1.25;;
24229;SDS011;12362;50.004;8.006;2022-08-19T00:23:56;2.08;;;1.25;;
24229;SDS011;12362;50.004;8.006;2022-08-19T00:26:34;2.63;;;1.40;;
24229;SDS011;12362;50.004;8.006;2022-08-19T00:29:20;2.83;;;1.30;;
24229;SDS011;12362;50.004;8.006;2022-08-19T00:31:48;2.47;;;1.52;;
24229;SDS011;12362;50.004;8.006;2022-08-19T00:34:29;8.27;;;1.88;;
24229;SDS011;12362;50.004;8.006;2022-08-19T00:37:01;3.17;;;1.40;;
24229;SDS011;12362;50.004;8.006;2022-08-19T00:39:33;1.25;;;0.85;;
24229;SDS011;12362;50.004;8.006;2022-08-19T00:41:59;4.57;;;2.47;;
24229;SDS011;12362;50.004;8.006;2022-08-19T00:44:29;3.47;;;1.17;;
24229;SDS011;12362;50.004;8.006;2022-08-19T00:47:22;4.03;;;1.40;;
24229;SDS011;12362;50.004;8.006;2022-08-19T00:49:50;2.13;;;1.38;;
24229;SDS011;12362;50.004;8.006;2022-08-19T00:52:28;2.97;;;1.20;;
24229;SDS011;12362;50.004;8.006;2022-08-19T00:55:02;3.67;;;1.58;;
24229;SDS011;12362;50.004;8.006;2022-08-19T00:57:37;3.20;;;1.67;;
24229;SDS011;12362;50.004;8.006;2022-08-19T01:00:29;3.35;;;1.67;;
24229;SDS011;12362;50.004;8.006;2022-08-19T01:03:08;3.40;;;1.33;;
24229;SDS011;12362;50.004;8.006;2022-08-19T01:05:54;2.80;;;1.17;;
24229;SDS011;12362;50.004;8.006;2022-08-19T01:08:21;4.63;;;1.80;;
24229;SDS011;12362;50.004;8.006;2022-08-19T01:11:09;3.05;;;1.50;;
24229;SDS011;12362;50.004;8.006;2022-08-19T01:16:29;4.88;;;2.13;;
24229;SDS011;12362;50.004;8.006;2022-08-19T01:19:16;4.03;;;1.88;;
24229;SDS011;12362;50.004;8.006;2022-08-19T01:22:49;2.95;;;1.70;;
24229;SDS011;12362;50.004;8.006;2022-08-19T01:25:27;2.42;;;1.60;;
24229;SDS011;12362;50.004;8.006;2022-08-19T01:28:18;3.40;;;1.83;;
24229;SDS011;12362;50.004;8.006;2022-08-19T01:31:01;5.53;;;2.17;;
24229;SDS011;12362;50.004;8.006;2022-08-19T01:34:01;3.67;;;1.30;;
24229;SDS011;12362;50.004;8.006;2022-08-19T01:36:40;1.73;;;1.23;;
24229;SDS011;12362;50.004;8.006;2022-08-19T01:39:14;3.88;;;1.70;;
24229;SDS011;12362;50.004;8.006;2022-08-19T01:41:47;4.40;;;2.20;;
24229;SDS011;12362;50.004;8.006;2022-08-19T01:44:35;4.95;;;1.65;;
24229;SDS011;12362;50.004;8.006;2022-08-19T01:47:08;3.35;;;1.67;;
24229;SDS011;12362;50.004;8.006;2022-08-19T01:49:37;7.20;;;1.98;;
24229;SDS011;12362;50.004;8.006;2022-08-19T01:52:18;5.57;;;2.03;;
24229;SDS011;12362;50.004;8.006;2022-08-19T01:54:54;4.07;;;1.17;;
24229;SDS011;12362;50.004;8.006;2022-08-19T01:57:25;3.85;;;1.35;;
24229;SDS011;12362;50.004;8.006;2022-08-19T02:00:03;3.15;;;1.52;;
24229;SDS011;12362;50.004;8.006;2022-08-19T02:02:35;3.90;;;1.58;;
24229;SDS011;12362;50.004;8.006;2022-08-19T02:05:13;3.22;;;1.17;;
24229;SDS011;12362;50.004;8.006;2022-08-19T02:08:26;4.18;;;1.60;;
24229;SDS011;12362;50.004;8.006;2022-08-19T02:11:09;2.53;;;1.23;;
24229;SDS011;12362;50.004;8.006;2022-08-19T02:13:55;3.13;;;1.40;;
24229;SDS011;12362;50.004;8.006;2022-08-19T02:16:44;3.45;;;1.23;;
24229;SDS011;12362;50.004;8.006;2022-08-19T02:19:16;2.42;;;1.23;;
24229;SDS011;12362;50.004;8.006;2022-08-19T02:22:02;1.77;;;1.13;;
24229;SDS011;12362;50.004;8.006;2022-08-19T02:24:46;4.20;;;1.20;;
24229;SDS011;12362;50.004;8.006;2022-08-19T02:27:35;3.17;;;1.20;;
24229;SDS011;12362;50.004;8.006;2022-08-19T02:30:24;4.45;;;1.75;;
24229;SDS011;12362;50.004;8.006;2022-08-19T02:32:55;2.83;;;1.10;;
24229;SDS011;12362;50.004;8.006;2022-08-19T02:35:34;2.17;;;1.20;;
24229;SDS011;12362;50.004;8.006;2022-08-19T02:38:06;4.97;;;1.27;;
24229;SDS011;12362;50.004;8.006;2022-08-19T02:40:59;4.40;;;1.30;;
24229;SDS011;12362;50.004;8.006;2022-08-19T02:43:43;2.38;;;1.40;;
24229;SDS011;12362;50.004;8.006;2022-08-19T02:46:23;1.55;;;0.95;;
24229;SDS011;12362;50.004;8.006;2022-08-19T02:49:06;5.70;;;1.63;;
24229;SDS011;12362;50.004;8.006;2022-08-19T02:51:38;2.83;;;1.50;;
24229;SDS011;12362;50.004;8.006;2022-08-19T02:54:14;3.08;;;1.50;;
24229;SDS011;12362;50.004;8.006;2022-08-19T02:56:41;4.22;;;1.98;;
24229;SDS011;12362;50.004;8.006;2022-08-19T02:59:30;2.33;;;1.00;;
24229;SDS011;12362;50.004;8.006;2022-08-19T03:02:18;2.95;;;1.23;;
24229;SDS011;12362;50.004;8.006;2022-08-19T03:04:57;2.50;;;1.48;;
24229;SDS011;12362;50.004;8.006;2022-08-19T03:07:31;4.03;;;1.58;;
24229;SDS011;12362;50.004;8.006;2022-08-19T03:10:14;4.38;;;1.58;;
24229;SDS011;12362;50.004;8.006;2022-08-19T03:12:43;2.53;;;1.20;;
24229;SDS011;12362;50.004;8.006;2022-08-19T03:15:27;2.60;;;1.35;;
24229;SDS011;12362;50.004;8.006;2022-08-19T03:18:06;5.43;;;1.42;;
24229;SDS011;12362;50.004;8.006;2022-08-19T03:20:44;1.15;;;0.70;;
24229;SDS011;12362;50.004;8.006;2022-08-19T03:23:15;3.42;;;1.50;;
24229;SDS011;12362;50.004;8.006;2022-08-19T03:25:44;4.03;;;1.30;;
24229;SDS011;12362;50.004;8.006;2022-08-19T03:28:20;2.78;;;1.10;;
24229;SDS011;12362;50.004;8.006;2022-08-19T03:30:57;8.13;;;1.35;;
24229;SDS011;12362;50.004;8.006;2022-08-19T03:33:28;7.22;;;2.05;;
24229;SDS011;12362;50.004;8.006;2022-08-19T03:36:16;5.35;;;1.60;;
24229;SDS011;12362;50.004;8.006;2022-08-19T03:38:57;5.40;;;1.45;;
24229;SDS011;12362;50.004;8.006;2022-08-19T03:41:27;3.50;;;1.55;;
24229;SDS011;12362;50.004;8.006;2022-08-19T03:44:04;3.95;;;1.35;;
24229;SDS011;12362;50.004;8.006;2022-08-19T03:46:39;3.08;;;1.42;;
24229;SDS011;12362;50.004;8.006;2022-08-19T03:49:21;5.68;;;2.22;;
24229;SDS011;12362;50.004;8.006;2022-08-19T03:52:13;3.53;;;1.50;;
24229;SDS011;12362;50.004;8.006;2022-08-19T03:54:52;1.95;;;1.10;;
24229;SDS011;12362;50.004;8.006;2022-08-19T03:57:30;1.83;;;1.35;;
24229;SDS011;12362;50.004;8.006;2022-08-19T04:00:13;6.93;;;1.80;;
24229;SDS011;12362;50.004;8.006;2022-08-19T04:02:47;9.18;;;1.80;;
24229;SDS011;12362;50.004;8.006;2022-08-19T04:05:23;9.57;;;2.10;;
24229;SDS011;12362;50.004;8.006;2022-08-19T04:08:13;1.88;;;1.05;;
24229;SDS011;12362;50.004;8.006;2022-08-19T04:11:05;7.10;;;2.20;;
24229;SDS011;12362;50.004;8.006;2022-08-19T04:16:41;4.35;;;1.45;;
24229;SDS011;12362;50.004;8.006;2022-08-19T04:19:12;4.95;;;1.80;;
24229;SDS011;12362;50.004;8.006;2022-08-19T04:24:38;5.47;;;1.95;;
24229;SDS011;12362;50.004;8.006;2022-08-19T04:27:19;3.13;;;1.58;;
24229;SDS011;12362;50.004;8.006;2022-08-19T04:29:52;3.78;;;1.85;;
24229;SDS011;12362;50.004;8.006;2022-08-19T04:32:40;4.57;;;1.27;;
24229;SDS011;12362;50.004;8.006;2022-08-19T04:35:19;2.85;;;1.20;;
24229;SDS011;12362;50.004;8.006;2022-08-19T04:38:03;3.17;;;1.23;;
24229;SDS011;12362;50.004;8.006;2022-08-19T04:40:42;3.78;;;1.13;;
24229;SDS011;12362;50.004;8.006;2022-08-19T04:43:33;3.42;;;1.45;;
24229;SDS011;12362;50.004;8.006;2022-08-19T04:46:11;3.10;;;1.30;;
24229;SDS011;12362;50.004;8.006;2022-08-19T04:48:42;6.05;;;1.20;;
24229;SDS011;12362;50.004;8.006;2022-08-19T04:51:10;5.97;;;1.55;;
24229;SDS011;12362;50.004;8.006;2022-08-19T04:53:55;4.10;;;1.55;;
24229;SDS011;12362;50.004;8.006;2022-08-19T04:56:34;1.70;;;1.15;;
24229;SDS011;12362;50.004;8.006;2022-08-19T07:17:03;6.93;;;1.20;;
24229;SDS011;12362;50.004;8.006;2022-08-19T07:19:39;2.42;;;0.70;;
24229;SDS011;12362;50.004;8.006;2022-08-19T07:22:05;3.58;;;1.08;;
24229;SDS011;12362;50.004;8.006;2022-08-19T07:24:32;2.20;;;0.93;;
24229;SDS011;12362;50.004;8.006;2022-08-19T07:26:59;2.08;;;1.02;;
24229;SDS011;12362;50.004;8.006;2022-08-19T07:29:28;3.80;;;1.13;;
24229;SDS011;12362;50.004;8.006;2022-08-19T07:31:57;3.38;;;0.75;;
24229;SDS011;12362;50.004;8.006;2022-08-19T07:34:27;2.28;;;0.95;;
24229;SDS011;12362;50.004;8.006;2022-08-19T07:36:57;3.38;;;1.13;;
24229;SDS011;12362;50.004;8.006;2022-08-19T07:39:26;3.20;;;0.80;;
24229;SDS011;12362;50.004;8.006;2022-08-19T07:41:57;3.42;;;1.27;;
24229;SDS011;12362;50.004;8.006;2022-08-19T07:44:26;2.97;;;1.08;;
24229;SDS011;12362;50.004;8.006;2022-08-19T07:46:56;1.80;;;1.13;;
24229;SDS011;12362;50.004;8.006;2022-08-19T07:49:24;3.17;;;0.98;;
24229;SDS011;12362;50.004;8.006;2022-08-19T07:51:57;3.38;;;1.08;;
24229;SDS011;12362;50.004;8.006;2022-08-19T07:54:29;2.03;;;0.98;;
24229;SDS011;12362;50.004;8.006;2022-08-19T07:56:59;3.50;;;1.20;;
24229;SDS011;12362;50.004;8.006;2022-08-19T07:59:25;1.58;;;0.70;;
24229;SDS011;12362;50.004;8.006;2022-08-19T08:01:54;4.85;;;1.20;;
24229;SDS011;12362;50.004;8.006;2022-08-19T08:04:20;2.70;;;1.10;;
24229;SDS011;12362;50.004;8.006;2022-08-19T08:07:05;8.63;;;1.25;;
24229;SDS011;12362;50.004;8.006;2022-08-19T08:09:50;2.35;;;1.05;;
24229;SDS011;12362;50.004;8.006;2022-08-19T08:12:23;5.03;;;1.50;;
24229;SDS011;12362;50.004;8.006;2022-08-19T08:14:54;2.42;;;0.85;;
24229;SDS011;12362;50.004;8.006;2022-08-19T08:17:24;3.88;;;1.20;;
24229;SDS011;12362;50.004;8.006;2022-08-19T08:19:54;5.93;;;1.48;;
24229;SDS011;12362;50.004;8.006;2022-08-19T08:22:22;5.47;;;1.15;;
24229;SDS011;12362;50.004;8.006;2022-08-19T08:25:09;8.20;;;1.88;;
24229;SDS011;12362;50.004;8.006;2022-08-19T08:27:44;3.35;;;1.17;;
24229;SDS011;12362;50.004;8.006;2022-08-19T08:30:14;9.07;;;1.42;;
24229;SDS011;12362;50.004;8.006;2022-08-19T08:32:43;4.78;;;1.30;;
24229;SDS011;12362;50.004;8.006;2022-08-19T08:35:16;6.88;;;1.73;;
24229;SDS011;12362;50.004;8.006;2022-08-19T08:37:44;2.42;;;1.20;;
24229;SDS011;12362;50.004;8.006;2022-08-19T08:40:23;5.10;;;2.05;;
24229;SDS011;12362;50.004;8.006;2022-08-19T08:43:37;4.07;;;1.73;;
24229;SDS011;12362;50.004;8.006;2022-08-19T08:45:56;4.88;;;1.95;;
24229;SDS011;12362;50.004;8.006;2022-08-19T08:51:14;5.65;;;1.25;;
24229;SDS011;12362;50.004;8.006;2022-08-19T08:53:50;5.57;;;1.55;;
24229;SDS011;12362;50.004;8.006;2022-08-19T08:56:21;3.72;;;1.55;;
24229;SDS011;12362;50.004;8.006;2022-08-19T08:58:51;2.60;;;1.45;;
24229;SDS011;12362;50.004;8.006;2022-08-19T09:01:48;4.10;;;1.38;;
24229;SDS011;12362;50.004;8.006;2022-08-19T09:04:14;3.40;;;1.27;;
24229;SDS011;12362;50.004;8.006;2022-08-19T09:06:45;2.65;;;0.82;;
24229;SDS011;12362;50.004;8.006;2022-08-19T09:09:18;2.92;;;1.15;;
24229;SDS011;12362;50.004;8.006;2022-08-19T09:11:55;3.03;;;1.02;;
24229;SDS011;12362;50.004;8.006;2022-08-19T09:14:43;2.65;;;1.00;;
24229;SDS011;12362;50.004;8.006;2022-08-19T09:17:15;6.07;;;1.25;;
24229;SDS011;12362;50.004;8.006;2022-08-19T09:19:56;1.92;;;1.15;;
24229;SDS011;12362;50.004;8.006;2022-08-19T09:22:38;1.90;;;1.15;;
24229;SDS011;12362;50.004;8.006;2022-08-19T09:25:10;1.55;;;0.90;;
24229;SDS011;12362;50.004;8.006;2022-08-19T09:27:39;2.42;;;1.17;;
24229;SDS011;12362;50.004;8.006;2022-08-19T09:30:09;2.05;;;0.95;;
24229;SDS011;12362;50.004;8.006;2022-08-19T09:32:38;1.33;;;0.70;;
24229;SDS011;12362;50.004;8.006;2022-08-19T09:35:08;0.70;;;0.57;;
24229;SDS011;12362;50.004;8.006;2022-08-19T09:37:41;2.95;;;1.30;;
24229;SDS011;12362;50.004;8.006;2022-08-19T09:40:08;1.40;;;1.08;;
24229;SDS011;12362;50.004;8.006;2022-08-19T09:42:35;1.85;;;1.30;;
24229;SDS011;12362;50.004;8.006;2022-08-19T09:45:02;1.10;;;0.65;;
24229;SDS011;12362;50.004;8.006;2022-08-19T09:47:28;1.20;;;0.70;;
24229;SDS011;12362;50.004;8.006;2022-08-19T09:49:54;2.25;;;0.77;;
24229;SDS011;12362;50.004;8.006;2022-08-19T09:52:23;1.50;;;0.90;;
24229;SDS011;12362;50.004;8.006;2022-08-19T09:54:51;1.80;;;0.90;;
24229;SDS011;12362;50.004;8.006;2022-08-19T09:57:18;1.45;;;0.70;;
24229;SDS011;12362;50.004;8.006;2022-08-19T09:59:43;7.93;;;0.70;;
24229;SDS011;12362;50.004;8.006;2022-08-19T10:02:10;1.25;;;0.55;;
24229;SDS011;12362;50.004;8.006;2022-08-19T10:04:36;2.33;;;1.00;;
24229;SDS011;12362;50.004;8.006;2022-08-19T10:07:21;1.70;;;0.98;;
24229;SDS011;12362;50.004;8.006;2022-08-19T10:09:47;3.20;;;0.95;;
24229;SDS011;12362;50.004;8.006;2022-08-19T10:12:13;2.00;;;1.13;;
24229;SDS011;12362;50.004;8.006;2022-08-19T10:14:40;2.25;;;0.70;;
24229;SDS011;12362;50.004;8.006;2022-08-19T10:17:05;1.38;;;0.68;;
24229;SDS011;12362;50.004;8.006;2022-08-19T10:19:33;1.15;;;0.70;;
24229;SDS011;12362;50.004;8.006;2022-08-19T10:22:05;1.27;;;0.55;;
24229;SDS011;12362;50.004;8.006;2022-08-19T10:24:34;1.55;;;0.85;;
24229;SDS011;12362;50.004;8.006;2022-08-19T10:27:00;0.90;;;0.60;;
24229;SDS011;12362;50.004;8.006;2022-08-19T10:29:31;0.88;;;0.68;;
24229;SDS011;12362;50.004;8.006;2022-08-19T10:32:00;4.80;;;1.13;;
24229;SDS011;12362;50.004;8.006;2022-08-19T10:34:31;0.88;;;0.70;;
24229;SDS011;12362;50.004;8.006;2022-08-19T10:37:03;0.90;;;0.70;;
24229;SDS011;12362;50.004;8.006;2022-08-19T10:39:34;3.17;;;0.80;;
24229;SDS011;12362;50.004;8.006;2022-08-19T10:42:05;2.03;;;0.68;;
24229;SDS011;12362;50.004;8.006;2022-08-19T10:44:33;1.23;;;0.85;;
24229;SDS011;12362;50.004;8.006;2022-08-19T10:47:03;1.67;;;0.30;;
24229;SDS011;12362;50.004;8.006;2022-08-19T10:49:30;1.75;;;1.08;;
24229;SDS011;12362;50.004;8.006;2022-08-19T10:51:58;0.80;;;0.57;;
24229;SDS011;12362;50.004;8.006;2022-08-19T10:54:43;1.58;;;0.60;;
24229;SDS011;12362;50.004;8.006;2022-08-19T10:57:33;1.25;;;0.65;;
24229;SDS011;12362;50.004;8.006;2022-08-19T11:00:02;1.52;;;0.88;;
24229;SDS011;12362;50.004;8.006;2022-08-19T11:02:31;0.85;;;0.77;;
24229;SDS011;12362;50.004;8.006;2022-08-19T11:05:00;1.17;;;0.73;;
24229;SDS011;12362;50.004;8.006;2022-08-19T11:07:28;0.65;;;0.52;;
24229;SDS011;12362;50.004;8.006;2022-08-19T11:09:55;1.83;;;0.63;;
24229;SDS011;12362;50.004;8.006;2022-08-19T11:12:22;4.18;;;0.90;;
24229;SDS011;12362;50.004;8.006;2022-08-19T11:14:49;2.20;;;1.13;;
24229;SDS011;12362;50.004;8.006;2022-08-19T11:17:16;1.92;;;0.88;;
24229;SDS011;12362;50.004;8.006;2022-08-19T11:19:42;0.70;;;0.50;;
24229;SDS011;12362;50.004;8.006;2022-08-19T11:22:09;1.60;;;0.63;;
24229;SDS011;12362;50.004;8.006;2022-08-19T11:24:36;1.63;;;0.65;;
24229;SDS011;12362;50.004;8.006;2022-08-19T11:27:03;1.83;;;1.00;;
24229;SDS011;12362;50.004;8.006;2022-08-19T11:29:32;2.83;;;0.90;;
24229;SDS011;12362;50.004;8.006;2022-08-19T11:31:59;0.85;;;0.70;;
24229;SDS011;12362;50.004;8.006;2022-08-19T11:34:28;1.85;;;0.77;;
24229;SDS011;12362;50.004;8.006;2022-08-19T11:36:54;0.40;;;0.40;;
24229;SDS011;12362;50.004;8.006;2022-08-19T11:39:24;0.65;;;0.50;;
24229;SDS011;12362;50.004;8.006;2022-08-19T11:41:51;1.52;;;0.52;;
24229;SDS011;12362;50.004;8.006;2022-08-19T11:44:17;4.38;;;0.65;;
24229;SDS011;12362;50.004;8.006;2022-08-19T11:46:44;0.93;;;0.65;;
24229;SDS011;12362;50.004;8.006;2022-08-19T11:49:15;5.05;;;0.95;;
24229;SDS011;12362;50.004;8.006;2022-08-19T11:51:41;4.22;;;0.68;;
24229;SDS011;12362;50.004;8.006;2022-08-19T11:54:14;0.32;;;0.32;;
24229;SDS011;12362;50.004;8.006;2022-08-19T11:56:41;1.15;;;0.65;;
24229;SDS011;12362;50.004;8.006;2022-08-19T11:59:07;2.45;;;0.82;;
24229;SDS011;12362;50.004;8.006;2022-08-19T12:01:33;0.45;;;0.43;;
24229;SDS011;12362;50.004;8.006;2022-08-19T12:04:01;2.50;;;0.40;;
24229;SDS011;12362;50.004;8.006;2022-08-19T12:06:33;1.45;;;0.68;;
24229;SDS011;12362;50.004;8.006;2022-08-19T12:09:06;1.33;;;0.55;;
24229;SDS011;12362;50.004;8.006;2022-08-19T12:11:38;1.38;;;0.55;;
24229;SDS011;12362;50.004;8.006;2022-08-19T12:14:09;1.20;;;0.60;;
24229;SDS011;12362;50.004;8.006;2022-08-19T12:16:41;0.55;;;0.30;;
24229;SDS011;12362;50.004;8.006;2022-08-19T12:19:13;2.10;;;0.45;;
24229;SDS011;12362;50.004;8.006;2022-08-19T12:21:41;0.47;;;0.47;;
24229;SDS011;12362;50.004;8.006;2022-08-19T12:24:11;1.50;;;0.70;;
24229;SDS011;12362;50.004;8.006;2022-08-19T12:26:39;3.50;;;0.70;;
24229;SDS011;12362;50.004;8.006;2022-08-19T12:29:07;0.28;;;0.28;;
24229;SDS011;12362;50.004;8.006;2022-08-19T12:31:33;0.60;;;0.47;;
24229;SDS011;12362;50.004;8.006;2022-08-19T12:33:59;0.57;;;0.22;;
24229;SDS011;12362;50.004;8.006;2022-08-19T12:36:27;0.95;;;0.43;;
24229;SDS011;12362;50.004;8.006;2022-08-19T12:38:53;1.00;;;0.47;;
24229;SDS011;12362;50.004;8.006;2022-08-19T12:41:20;0.95;;;0.45;;
24229;SDS011;12362;50.004;8.006;2022-08-19T12:43:47;0.63;;;0.50;;
24229;SDS011;12362;50.004;8.006;2022-08-19T12:46:15;0.38;;;0.20;;
24229;SDS011;12362;50.004;8.006;2022-08-19T12:48:41;0.90;;;0.47;;
24229;SDS011;12362;50.004;8.006;2022-08-19T12:51:11;1.13;;;0.63;;
24229;SDS011;12362;50.004;8.006;2022-08-19T12:53:40;1.13;;;0.60;;
24229;SDS011;12362;50.004;8.006;2022-08-19T12:56:06;0.93;;;0.60;;
24229;SDS011;12362;50.004;8.006;2022-08-19T12:58:34;2.05;;;0.88;;
24229;SDS011;12362;50.004;8.006;2022-08-19T13:01:09;0.63;;;0.40;;
24229;SDS011;12362;50.004;8.006;2022-08-19T13:03:37;6.53;;;0.60;;
24229;SDS011;12362;50.004;8.006;2022-08-19T13:06:06;0.45;;;0.30;;
24229;SDS011;12362;50.004;8.006;2022-08-19T13:08:33;1.30;;;0.57;;
24229;SDS011;12362;50.004;8.006;2022-08-19T13:11:14;0.95;;;0.75;;
24229;SDS011;12362;50.004;8.006;2022-08-19T13:13:44;0.65;;;0.40;;
24229;SDS011;12362;50.004;8.006;2022-08-19T13:16:11;4.78;;;0.73;;
24229;SDS011;12362;50.004;8.006;2022-08-19T13:18:39;1.48;;;0.43;;
24229;SDS011;12362;50.004;8.006;2022-08-19T13:21:08;1.20;;;0.68;;
24229;SDS011;12362;50.004;8.006;2022-08-19T13:23:38;0.52;;;0.43;;
24229;SDS011;12362;50.004;8.006;2022-08-19T13:26:07;1.02;;;0.52;;
24229;SDS011;12362;50.004;8.006;2022-08-19T13:28:43;0.88;;;0.50;;
24229;SDS011;12362;50.004;8.006;2022-08-19T13:31:31;1.25;;;0.70;;
24229;SDS011;12362;50.004;8.006;2022-08-19T13:34:26;1.08;;;0.77;;
24229;SDS011;12362;50.004;8.006;2022-08-19T13:36:55;0.43;;;0.40;;
24229;SDS011;12362;50.004;8.006;2022-08-19T13:39:20;0.40;;;0.40;;
24229;SDS011;12362;50.004;8.006;2022-08-19T13:41:48;0.98;;;0.77;;
24229;SDS011;12362;50.004;8.006;2022-08-19T13:44:16;2.60;;;0.75;;
24229;SDS011;12362;50.004;8.006;2022-08-19T13:46:47;4.00;;;0.70;;
24229;SDS011;12362;50.004;8.006;2022-08-19T13:49:17;1.45;;;0.73;;
24229;SDS011;12362;50.004;8.006;2022-08-19T13:51:43;0.70;;;0.50;;
24229;SDS011;12362;50.004;8.006;2022-08-19T13:54:11;1.13;;;0.77;;
24229;SDS011;12362;50.004;8.006;2022-08-19T13:56:44;0.85;;;0.52;;
24229;SDS011;12362;50.004;8.006;2022-08-19T13:59:11;1.38;;;0.40;;
24229;SDS011;12362;50.004;8.006;2022-08-19T14:01:37;5.05;;;0.77;;
24229;SDS011;12362;50.004;8.006;2022-08-19T14:04:07;1.75;;;0.70;;
24229;SDS011;12362;50.004;8.006;2022-08-19T14:06:33;5.47;;;0.60;;
24229;SDS011;12362;50.004;8.006;2022-08-19T14:08:59;1.08;;;0.50;;
24229;SDS011;12362;50.004;8.006;2022-08-19T14:11:27;0.85;;;0.55;;
24229;SDS011;12362;50.004;8.006;2022-08-19T14:13:55;0.98;;;0.50;;
24229;SDS011;12362;50.004;8.006;2022-08-19T14:16:22;1.00;;;0.50;;
24229;SDS011;12362;50.004;8.006;2022-08-19T14:18:48;1.08;;;0.65;;
24229;SDS011;12362;50.004;8.006;2022-08-19T14:21:17;3.17;;;1.10;;
24229;SDS011;12362;50.004;8.006;2022-08-19T14:23:48;1.90;;;0.85;;
24229;SDS011;12362;50.004;8.006;2022-08-19T14:26:17;0.68;;;0.52;;
24229;SDS011;12362;50.004;8.006;2022-08-19T14:28:47;1.88;;;0.50;;
24229;SDS011;12362;50.004;8.006;2022-08-19T14:31:17;2.08;;;0.90;;
24229;SDS011;12362;50.004;8.006;2022-08-19T14:33:45;1.20;;;0.70;;
24229;SDS011;12362;50.004;8.006;2022-08-19T14:36:14;1.35;;;0.70;;
24229;SDS011;12362;50.004;8.006;2022-08-19T14:38:43;1.40;;;0.88;;
24229;SDS011;12362;50.004;8.006;2022-08-19T14:41:15;1.58;;;0.80;;
24229;SDS011;12362;50.004;8.006;2022-08-19T14:43:59;0.95;;;0.40;;
24229;SDS011;12362;50.004;8.006;2022-08-19T14:46:26;1.63;;;0.80;;
24229;SDS011;12362;50.004;8.006;2022-08-19T14:48:54;0.68;;;0.52;;
24229;SDS011;12362;50.004;8.006;2022-08-19T14:51:21;2.15;;;0.80;;
24229;SDS011;12362;50.004;8.006;2022-08-19T14:53:49;2.63;;;1.10;;
24229;SDS011;12362;50.004;8.006;2022-08-19T14:56:16;1.08;;;0.77;;
24229;SDS011;12362;50.004;8.006;2022-08-19T14:58:47;1.30;;;1.00;;
24229;SDS011;12362;50.004;8.006;2022-08-19T15:01:17;1.38;;;0.75;;
24229;SDS011;12362;50.004;8.006;2022-08-19T15:03:52;1.65;;;0.80;;
24229;SDS011;12362;50.004;8.006;2022-08-19T15:06:22;2.00;;;0.80;;
24229;SDS011;12362;50.004;8.006;2022-08-19T15:08:49;2.92;;;0.90;;
24229;SDS011;12362;50.004;8.006;2022-08-19T15:11:18;1.95;;;0.70;;
24229;SDS011;12362;50.004;8.006;2022-08-19T15:13:50;2.65;;;0.80;;
24229;SDS011;12362;50.004;8.006;2022-08-19T15:16:16;0.45;;;0.45;;
24229;SDS011;12362;50.004;8.006;2022-08-19T15:18:44;6.22;;;0.90;;
24229;SDS011;12362;50.004;8.006;2022-08-19T15:21:14;1.42;;;0.52;;
24229;SDS011;12362;50.004;8.006;2022-08-19T15:23:45;2.85;;;0.80;;
24229;SDS011;12362;50.004;8.006;2022-08-19T15:26:13;1.27;;;0.80;;
24229;SDS011;12362;50.004;8.006;2022-08-19T15:28:40;0.68;;;0.63;;
24229;SDS011;12362;50.004;8.006;2022-08-19T15:31:08;1.58;;;0.70;;
24229;SDS011;12362;50.004;8.006;2022-08-19T15:33:35;1.92;;;0.60;;
24229;SDS011;12362;50.004;8.006;2022-08-19T15:36:05;1.75;;;0.80;;
24229;SDS011;12362;50.004;8.006;2022-08-19T15:38:34;5.30;;;1.27;;
24229;SDS011;12362;50.004;8.006;2022-08-19T15:41:00;0.90;;;0.70;;
24229;SDS011;12362;50.004;8.006;2022-08-19T15:44:01;1.65;;;0.63;;
24229;SDS011;12362;50.004;8.006;2022-08-19T15:46:29;1.38;;;0.85;;
24229;SDS011;12362;50.004;8.006;2022-08-19T15:48:57;1.45;;;0.65;;
24229;SDS011;12362;50.004;8.006;2022-08-19T15:51:27;1.98;;;0.75;;
24229;SDS011;12362;50.004;8.006;2022-08-19T15:53:54;0.95;;;0.70;;
24229;SDS011;12362;50.004;8.006;2022-08-19T15:56:22;2.20;;;1.15;;
24229;SDS011;12362;50.004;8.006;2022-08-19T15:58:48;2.65;;;0.95;;
24229;SDS011;12362;50.004;8.006;2022-08-19T16:01:32;1.40;;;0.85;;
24229;SDS011;12362;50.004;8.006;2022-08-19T16:03:59;2.13;;;0.80;;
24229;SDS011;12362;50.004;8.006;2022-08-19T16:06:52;2.72;;;0.82;;
24229;SDS011;12362;50.004;8.006;2022-08-19T16:09:22;0.85;;;0.55;;
24229;SDS011;12362;50.004;8.006;2022-08-19T16:11:50;1.65;;;1.02;;
24229;SDS011;12362;50.004;8.006;2022-08-19T16:14:17;0.88;;;0.50;;
24229;SDS011;12362;50.004;8.006;2022-08-19T16:16:44;0.80;;;0.63;;
24229;SDS011;12362;50.004;8.006;2022-08-19T16:19:11;0.95;;;0.75;;
24229;SDS011;12362;50.004;8.006;2022-08-19T16:21:40;1.27;;;0.45;;
24229;SDS011;12362;50.004;8.006;2022-08-19T16:24:10;3.30;;;0.70;;
24229;SDS011;12362;50.004;8.006;2022-08-19T16:26:39;2.08;;;0.50;;
24229;SDS011;12362;50.004;8.006;2022-08-19T16:29:07;0.98;;;0.55;;
24229;SDS011;12362;50.004;8.006;2022-08-19T16:31:36;1.02;;;0.63;;
24229;SDS011;12362;50.004;8.006;2022-08-19T16:34:04;1.98;;;0.73;;
24229;SDS011;12362;50.004;8.006;2022-08-19T16:36:30;1.52;;;0.82;;
24229;SDS011;12362;50.004;8.006;2022-08-19T16:38:56;5.80;;;0.85;;
24229;SDS011;12362;50.004;8.006;2022-08-19T16:41:23;1.15;;;0.80;;
24229;SDS011;12362;50.004;8.006;2022-08-19T16:43:50;0.98;;;0.38;;
24229;SDS011;12362;50.004;8.006;2022-08-19T16:46:17;1.02;;;0.55;;
24229;SDS011;12362;50.004;8.006;2022-08-19T16:48:43;2.20;;;0.75;;
24229;SDS011;12362;50.004;8.006;2022-08-19T16:51:09;3.17;;;1.38;;
24229;SDS011;12362;50.004;8.006;2022-08-19T16:53:39;8.52;;;0.65;;
24229;SDS011;12362;50.004;8.006;2022-08-19T16:56:07;1.88;;;1.08;;
24229;SDS011;12362;50.004;8.006;2022-08-19T16:58:37;1.05;;;0.65;;
24229;SDS011;12362;50.004;8.006;2022-08-19T17:01:06;1.95;;;0.60;;
24229;SDS011;12362;50.004;8.006;2022-08-19T17:03:37;1.00;;;0.73;;
24229;SDS011;12362;50.004;8.006;2022-08-19T17:06:09;2.83;;;1.20;;
24229;SDS011;12362;50.004;8.006;2022-08-19T17:08:37;1.63;;;0.60;;
24229;SDS011;12362;50.004;8.006;2022-08-19T17:11:04;2.33;;;1.00;;
24229;SDS011;12362;50.004;8.006;2022-08-19T17:13:30;2.17;;;1.15;;
24229;SDS011;12362;50.004;8.006;2022-08-19T17:15:56;2.17;;;0.95;;
24229;SDS011;12362;50.004;8.006;2022-08-19T17:18:25;1.45;;;0.88;;
24229;SDS011;12362;50.004;8.006;2022-08-19T17:20:52;1.63;;;0.90;;
24229;SDS011;12362;50.004;8.006;2022-08-19T17:23:18;1.52;;;0.80;;
24229;SDS011;12362;50.004;8.006;2022-08-19T17:25:46;1.42;;;0.88;;
24229;SDS011;12362;50.004;8.006;2022-08-19T17:28:17;2.00;;;1.23;;
24229;SDS011;12362;50.004;8.006;2022-08-19T17:30:47;1.60;;;0.60;;
24229;SDS011;12362;50.004;8.006;2022-08-19T17:33:14;1.20;;;0.63;;
24229;SDS011;12362;50.004;8.006;2022-08-19T17:35:40;2.95;;;0.95;;
24229;SDS011;12362;50.004;8.006;2022-08-19T17:38:10;2.63;;;1.17;;
24229;SDS011;12362;50.004;8.006;2022-08-19T17:40:39;2.67;;;1.13;;
24229;SDS011;12362;50.004;8.006;2022-08-19T17:43:07;1.75;;;0.85;;
24229;SDS011;12362;50.004;8.006;2022-08-19T17:45:34;3.70;;;1.30;;
24229;SDS011;12362;50.004;8.006;2022-08-19T17:48:00;1.67;;;0.95;;
24229;SDS011;12362;50.004;8.006;2022-08-19T17:50:26;2.08;;;0.88;;